Time;durP1;ratioP1;P1;durP2;ratioP2;P2;SDS_P1;SDS_P2;PMS_P1;PMS_P2;Temp;Humidity;BMP_temperature;BMP_pressure;BME280_temperature;BME280_humidity;BME280_pressure;Samples;Min_cycle;Max_cycle;Signal;HPM_P1;HPM_P2
2021/08/02 00:01:40;;;;;;;3.63;3.33;;;;;;;;;;5006832;28;20033;-92
2021/08/02 00:04:08;;;;;;;3.28;3.05;;;;;;;;;;5005338;28;20463;-90
2021/08/02 00:06:53;;;;;;;4.25;3.88;;;;;;;;;;5018349;28;20018;-91
2021/08/02 00:09:31;;;;;;;3.33;3.08;;;;;;;;;;5019631;28;20034;-91
2021/08/02 00:11:57;;;;;;;3.08;2.88;;;;;;;;;;5002957;28;20034;-93
2021/08/02 00:14:23;;;;;;;3.63;3.38;;;;;;;;;;5003009;28;20597;-92
2021/08/02 00:16:48;;;;;;;3.40;3.15;;;;;;;;;;5003847;28;20034;-89
2021/08/02 00:19:14;;;;;;;2.88;2.65;;;;;;;;;;5018228;28;20562;-87
2021/08/02 00:21:41;;;;;;;3.20;3.00;;;;;;;;;;5005925;28;20057;-92
2021/08/02 00:24:07;;;;;;;3.53;3.22;;;;;;;;;;5011123;28;20021;-92
2021/08/02 00:26:32;;;;;;;3.25;3.05;;;;;;;;;;5004976;28;20022;-89
2021/08/02 00:28:58;;;;;;;2.83;2.70;;;;;;;;;;5010767;28;20105;-90
2021/08/02 00:31:23;;;;;;;2.90;2.70;;;;;;;;;;5007859;28;20088;-90
2021/08/02 00:33:48;;;;;;;2.67;2.58;;;;;;;;;;5007704;28;20498;-90
2021/08/02 00:36:22;;;;;;;3.17;2.97;;;;;;;;;;5006572;28;20022;-91
2021/08/02 00:38:53;;;;;;;2.80;2.70;;;;;;;;;;5005468;28;20018;-91
2021/08/02 00:41:24;;;;;;;2.60;2.50;;;;;;;;;;5005061;28;20480;-92
2021/08/02 00:43:52;;;;;;;3.42;2.45;;;;;;;;;;5002858;28;20029;-92
2021/08/02 00:46:17;;;;;;;3.13;2.92;;;;;;;;;;5003375;28;20026;-92
2021/08/02 00:48:49;;;;;;;2.50;2.40;;;;;;;;;;5004941;28;20029;-91
2021/08/02 00:51:15;;;;;;;2.45;2.13;;;;;;;;;;5019797;28;20041;-90
2021/08/02 00:53:42;;;;;;;2.67;2.47;;;;;;;;;;5003661;28;20025;-91
2021/08/02 00:56:08;;;;;;;2.22;2.13;;;;;;;;;;5003453;28;20053;-90
2021/08/02 00:58:33;;;;;;;2.38;2.28;;;;;;;;;;5004873;28;20046;-90
2021/08/02 01:00:59;;;;;;;2.63;2.30;;;;;;;;;;5011758;28;20072;-92
2021/08/02 01:03:25;;;;;;;2.17;2.08;;;;;;;;;;5003800;28;20073;-91
2021/08/02 01:05:51;;;;;;;2.30;2.20;;;;;;;;;;5005993;28;20482;-90
2021/08/02 01:08:19;;;;;;;1.73;1.70;;;;;;;;;;5019991;28;20025;-90
2021/08/02 01:10:46;;;;;;;2.60;2.40;;;;;;;;;;5003323;28;20021;-90
2021/08/02 01:13:12;;;;;;;3.42;3.13;;;;;;;;;;5003519;28;20466;-90
2021/08/02 01:15:39;;;;;;;3.10;2.80;;;;;;;;;;5001708;28;20049;-91
2021/08/02 01:18:05;;;;;;;2.70;2.50;;;;;;;;;;5003680;28;20052;-91
2021/08/02 01:20:31;;;;;;;2.50;2.30;;;;;;;;;;5020602;28;20096;-90
2021/08/02 01:22:58;;;;;;;2.10;2.00;;;;;;;;;;5005476;28;20033;-92
2021/08/02 01:25:36;;;;;;;2.50;1.90;;;;;;;;;;5006871;28;20026;-91
2021/08/02 01:28:13;;;;;;;1.70;1.60;;;;;;;;;;5004274;28;20028;-92
2021/08/02 01:30:39;;;;;;;2.00;1.90;;;;;;;;;;5008320;28;20468;-89
2021/08/02 01:33:04;;;;;;;1.42;1.42;;;;;;;;;;5029451;28;20044;-91
2021/08/02 01:35:29;;;;;;;1.85;1.75;;;;;;;;;;5032125;28;20028;-92
2021/08/02 01:37:55;;;;;;;4.05;1.85;;;;;;;;;;5038828;28;20552;-91
2021/08/02 01:40:20;;;;;;;2.00;1.90;;;;;;;;;;5027276;28;20024;-89
2021/08/02 01:42:46;;;;;;;1.80;1.70;;;;;;;;;;5028795;28;20044;-91
2021/08/02 01:45:11;;;;;;;2.03;1.92;;;;;;;;;;5042232;28;20104;-89
2021/08/02 01:47:51;;;;;;;2.13;2.03;;;;;;;;;;5041174;28;20017;-91
2021/08/02 01:50:19;;;;;;;2.20;2.00;;;;;;;;;;5041552;28;20025;-89
2021/08/02 01:52:50;;;;;;;2.00;1.90;;;;;;;;;;5022237;28;20473;-90
2021/08/02 01:55:17;;;;;;;3.58;2.25;;;;;;;;;;5025565;28;20021;-90
2021/08/02 01:57:47;;;;;;;2.33;2.13;;;;;;;;;;5042120;28;20144;-87
2021/08/02 02:00:13;;;;;;;2.00;1.90;;;;;;;;;;5021456;28;20067;-89
2021/08/02 02:02:39;;;;;;;2.72;2.30;;;;;;;;;;5041116;28;20458;-90
2021/08/02 02:05:07;;;;;;;2.25;2.05;;;;;;;;;;5041249;28;20025;-91
2021/08/02 02:07:35;;;;;;;2.08;1.77;;;;;;;;;;5041647;28;20044;-90
2021/08/02 02:10:01;;;;;;;2.15;2.05;;;;;;;;;;5029260;28;20021;-91
2021/08/02 02:12:26;;;;;;;2.10;2.00;;;;;;;;;;5029227;28;20398;-89
2021/08/02 02:14:53;;;;;;;2.15;2.05;;;;;;;;;;5026279;28;20033;-91
2021/08/02 02:17:20;;;;;;;2.83;1.80;;;;;;;;;;5039197;28;20063;-90
2021/08/02 02:19:47;;;;;;;2.20;2.10;;;;;;;;;;5054322;28;20032;-90
2021/08/02 02:22:12;;;;;;;2.15;2.05;;;;;;;;;;5039737;28;20521;-90
2021/08/02 02:24:38;;;;;;;2.05;1.95;;;;;;;;;;5035783;28;20021;-91
2021/08/02 02:27:04;;;;;;;2.55;2.38;;;;;;;;;;5047306;28;20021;-89
2021/08/02 02:29:31;;;;;;;2.63;2.42;;;;;;;;;;5058798;28;20013;-87
2021/08/02 02:31:57;;;;;;;2.45;1.75;;;;;;;;;;5062806;28;20041;-86
2021/08/02 02:34:22;;;;;;;2.70;2.50;;;;;;;;;;5060203;28;20079;-90
2021/08/02 02:36:48;;;;;;;2.47;2.28;;;;;;;;;;5053252;28;20026;-88
2021/08/02 02:39:14;;;;;;;2.20;2.10;;;;;;;;;;5024238;28;20398;-90
2021/08/02 02:41:41;;;;;;;1.90;1.80;;;;;;;;;;5033785;28;20112;-90
2021/08/02 02:44:06;;;;;;;2.30;2.20;;;;;;;;;;5035174;28;20021;-90
2021/08/02 02:46:32;;;;;;;2.22;2.13;;;;;;;;;;5025584;28;20133;-90
2021/08/02 02:48:57;;;;;;;2.53;2.35;;;;;;;;;;5032881;28;20033;-88
2021/08/02 02:51:25;;;;;;;2.47;2.33;;;;;;;;;;5046174;28;20506;-90
2021/08/02 02:53:50;;;;;;;1.88;1.77;;;;;;;;;;5034545;28;20025;-91
2021/08/02 02:56:16;;;;;;;1.98;1.88;;;;;;;;;;5044036;28;20017;-89
2021/08/02 02:58:41;;;;;;;1.75;1.65;;;;;;;;;;5042061;28;20022;-90
2021/08/02 03:01:07;;;;;;;2.00;1.90;;;;;;;;;;5028336;28;20082;-90
2021/08/02 03:03:34;;;;;;;1.73;1.70;;;;;;;;;;5042906;28;20469;-90
2021/08/02 03:06:00;;;;;;;2.33;2.22;;;;;;;;;;5045171;28;20044;-90
2021/08/02 03:08:26;;;;;;;2.03;1.92;;;;;;;;;;5041162;28;20057;-90
2021/08/02 03:10:52;;;;;;;2.15;2.05;;;;;;;;;;5046492;28;20039;-89
2021/08/02 03:13:17;;;;;;;2.20;1.85;;;;;;;;;;5030301;28;20024;-91
2021/08/02 03:15:43;;;;;;;2.10;2.00;;;;;;;;;;5036926;28;20490;-91
2021/08/02 03:18:09;;;;;;;2.50;2.17;;;;;;;;;;5066392;28;20006;-86
2021/08/02 03:20:34;;;;;;;2.20;2.00;;;;;;;;;;5066907;28;20020;-86
2021/08/02 03:23:02;;;;;;;2.17;2.08;;;;;;;;;;5066068;28;20081;-87
2021/08/02 03:25:38;;;;;;;1.90;1.80;;;;;;;;;;5064962;28;20045;-89
2021/08/02 03:28:11;;;;;;;2.03;1.92;;;;;;;;;;5068120;28;20024;-89
2021/08/02 03:30:37;;;;;;;1.98;1.80;;;;;;;;;;5064785;28;20009;-88
2021/08/02 03:33:05;;;;;;;1.83;1.73;;;;;;;;;;5062411;28;20053;-87
2021/08/02 03:35:30;;;;;;;1.95;1.85;;;;;;;;;;5045812;28;20036;-89
2021/08/02 03:37:56;;;;;;;1.88;1.77;;;;;;;;;;5046510;28;20044;-90
2021/08/02 03:40:21;;;;;;;2.20;2.10;;;;;;;;;;5038066;28;20064;-90
2021/08/02 03:42:47;;;;;;;1.83;1.65;;;;;;;;;;5044529;28;20905;-90
2021/08/02 03:45:15;;;;;;;1.92;1.83;;;;;;;;;;5043854;28;20378;-89
2021/08/02 03:47:42;;;;;;;2.05;1.95;;;;;;;;;;5032117;28;20580;-91
2021/08/02 03:50:07;;;;;;;2.17;2.08;;;;;;;;;;5034559;28;20056;-90
2021/08/02 03:52:33;;;;;;;1.98;1.88;;;;;;;;;;5039013;28;20206;-86
2021/08/02 03:54:58;;;;;;;2.00;1.90;;;;;;;;;;5066232;28;20008;-88
2021/08/02 03:57:24;;;;;;;2.30;2.20;;;;;;;;;;5066351;28;20010;-88
2021/08/02 03:59:50;;;;;;;2.25;2.05;;;;;;;;;;5066449;28;20037;-90
2021/08/02 04:02:15;;;;;;;1.80;1.70;;;;;;;;;;5050559;28;20044;-87
2021/08/02 04:04:40;;;;;;;2.10;1.90;;;;;;;;;;5057754;28;20017;-93
2021/08/02 04:07:05;;;;;;;2.17;2.08;;;;;;;;;;5060500;28;20018;-86
2021/08/02 04:09:31;;;;;;;2.28;2.10;;;;;;;;;;5045404;28;20017;-89
2021/08/02 04:11:56;;;;;;;1.90;1.80;;;;;;;;;;5050479;28;20581;-89
2021/08/02 04:14:22;;;;;;;2.67;2.30;;;;;;;;;;5043893;28;20120;-90
2021/08/02 04:16:47;;;;;;;2.00;1.90;;;;;;;;;;5046423;28;20024;-89
2021/08/02 04:19:12;;;;;;;1.98;1.88;;;;;;;;;;5025541;28;20021;-89
2021/08/02 04:21:38;;;;;;;2.25;2.15;;;;;;;;;;5046899;28;20603;-90
2021/08/02 04:24:03;;;;;;;2.00;1.90;;;;;;;;;;5023369;28;20554;-90
2021/08/02 04:26:28;;;;;;;2.53;1.88;;;;;;;;;;5028886;28;20029;-89
2021/08/02 04:28:56;;;;;;;2.22;1.73;;;;;;;;;;5043426;28;20438;-90
2021/08/02 04:31:26;;;;;;;1.80;1.70;;;;;;;;;;5035745;28;20157;-89
2021/08/02 04:33:51;;;;;;;1.77;1.67;;;;;;;;;;5010393;28;20022;-92
2021/08/02 04:36:17;;;;;;;2.13;2.03;;;;;;;;;;5001647;28;20025;-91
2021/08/02 04:38:42;;;;;;;2.30;2.20;;;;;;;;;;5002308;28;20018;-91
2021/08/02 04:41:07;;;;;;;1.80;1.70;;;;;;;;;;5003675;28;20026;-90
2021/08/02 04:43:33;;;;;;;1.80;1.73;;;;;;;;;;5020222;28;20050;-91
2021/08/02 04:45:58;;;;;;;1.88;1.77;;;;;;;;;;5010261;28;20018;-91
2021/08/02 04:48:23;;;;;;;1.95;1.85;;;;;;;;;;5011924;28;20018;-89
2021/08/02 04:50:48;;;;;;;2.13;2.03;;;;;;;;;;5004241;28;20088;-90
2021/08/02 04:53:14;;;;;;;2.10;2.00;;;;;;;;;;5004790;28;20113;-90
2021/08/02 04:55:39;;;;;;;2.42;2.30;;;;;;;;;;5013855;28;20050;-89
2021/08/02 04:58:04;;;;;;;2.17;2.08;;;;;;;;;;5025818;28;20180;-90
2021/08/02 05:00:30;;;;;;;6.85;2.20;;;;;;;;;;5013927;28;20014;-91
2021/08/02 05:02:55;;;;;;;2.30;2.20;;;;;;;;;;5019758;28;20028;-91
2021/08/02 05:05:20;;;;;;;2.70;2.15;;;;;;;;;;5005322;28;20056;-88
2021/08/02 05:07:46;;;;;;;2.40;2.20;;;;;;;;;;5003505;28;20029;-90
2021/08/02 05:10:11;;;;;;;2.25;2.15;;;;;;;;;;5003055;28;20057;-90
2021/08/02 05:12:36;;;;;;;2.30;2.20;;;;;;;;;;5004085;28;20034;-90
2021/08/02 05:15:03;;;;;;;2.30;2.20;;;;;;;;;;5010275;28;20090;-92
2021/08/02 05:17:28;;;;;;;2.20;2.10;;;;;;;;;;5019697;28;20022;-91
2021/08/02 05:19:53;;;;;;;1.90;1.80;;;;;;;;;;5012059;28;20113;-89
2021/08/02 05:22:18;;;;;;;2.72;2.40;;;;;;;;;;5008451;28;20033;-90
2021/08/02 05:24:44;;;;;;;2.33;2.17;;;;;;;;;;5003110;28;20014;-89
2021/08/02 05:27:09;;;;;;;2.10;2.00;;;;;;;;;;5011498;28;20021;-91
2021/08/02 05:29:34;;;;;;;3.90;1.77;;;;;;;;;;5012454;28;20030;-90
2021/08/02 05:31:59;;;;;;;2.80;2.70;;;;;;;;;;5023202;28;20049;-89
2021/08/02 05:34:25;;;;;;;2.03;1.92;;;;;;;;;;5046664;28;20018;-90
2021/08/02 05:36:50;;;;;;;1.85;1.75;;;;;;;;;;5047290;28;20013;-90
2021/08/02 05:39:15;;;;;;;1.83;1.83;;;;;;;;;;5042903;28;20048;-88
2021/08/02 05:41:41;;;;;;;2.17;1.77;;;;;;;;;;5055491;28;20005;-88
2021/08/02 05:44:06;;;;;;;1.88;1.77;;;;;;;;;;5064037;28;20012;-87
2021/08/02 05:46:32;;;;;;;1.92;1.83;;;;;;;;;;5047073;28;20029;-89
2021/08/02 05:48:57;;;;;;;1.80;1.70;;;;;;;;;;5042932;28;20006;-90
2021/08/02 05:51:23;;;;;;;1.88;1.77;;;;;;;;;;5062027;28;20041;-90
2021/08/02 05:53:48;;;;;;;2.55;1.98;;;;;;;;;;5038383;28;20049;-90
2021/08/02 05:56:13;;;;;;;2.20;2.05;;;;;;;;;;5049398;28;20481;-88
2021/08/02 05:58:39;;;;;;;2.03;1.92;;;;;;;;;;5047853;28;20013;-91
2021/08/02 06:01:04;;;;;;;1.85;1.75;;;;;;;;;;5037045;28;20071;-91
2021/08/02 06:03:29;;;;;;;1.80;1.70;;;;;;;;;;5047527;28;20545;-86
2021/08/02 06:05:54;;;;;;;2.15;1.95;;;;;;;;;;5047961;28;20017;-90
2021/08/02 06:08:20;;;;;;;2.95;2.75;;;;;;;;;;5016789;28;20073;-93
2021/08/02 06:10:45;;;;;;;2.45;2.08;;;;;;;;;;5049521;28;20022;-91
2021/08/02 06:13:10;;;;;;;2.20;2.10;;;;;;;;;;5051394;28;19998;-93
2021/08/02 06:15:36;;;;;;;2.45;2.17;;;;;;;;;;5038111;28;20390;-92
2021/08/02 06:18:02;;;;;;;2.30;2.20;;;;;;;;;;5049892;28;20022;-92
2021/08/02 06:20:27;;;;;;;1.60;1.50;;;;;;;;;;5064553;28;20502;-93
2021/08/02 06:22:52;;;;;;;3.05;1.90;;;;;;;;;;5057862;28;20021;-92
2021/08/02 06:25:21;;;;;;;1.95;1.67;;;;;;;;;;5060719;28;20021;-91
2021/08/02 06:27:46;;;;;;;1.75;1.65;;;;;;;;;;5061811;28;20037;-92
2021/08/02 06:30:11;;;;;;;2.05;1.90;;;;;;;;;;5038013;28;20017;-89
2021/08/02 06:32:37;;;;;;;1.90;1.73;;;;;;;;;;5049865;28;20108;-88
2021/08/02 06:35:02;;;;;;;2.05;1.88;;;;;;;;;;5068612;28;20016;-87
2021/08/02 06:37:27;;;;;;;2.65;1.80;;;;;;;;;;5066709;28;20045;-88
2021/08/02 06:39:53;;;;;;;2.03;1.88;;;;;;;;;;5067082;28;20025;-91
2021/08/02 06:42:18;;;;;;;2.75;1.80;;;;;;;;;;5068027;28;20056;-91
2021/08/02 06:44:44;;;;;;;2.83;1.95;;;;;;;;;;5068416;28;20013;-91
2021/08/02 06:47:09;;;;;;;1.77;1.67;;;;;;;;;;5067774;28;20120;-88
2021/08/02 06:49:35;;;;;;;3.05;2.22;;;;;;;;;;5066005;28;20002;-88
2021/08/02 06:52:00;;;;;;;2.03;1.92;;;;;;;;;;5050914;28;20041;-89
2021/08/02 06:54:25;;;;;;;2.08;1.88;;;;;;;;;;5052818;28;20458;-91
2021/08/02 06:56:51;;;;;;;1.73;1.63;;;;;;;;;;5058895;28;20014;-93
2021/08/02 06:59:16;;;;;;;1.90;1.80;;;;;;;;;;5051176;28;20024;-90
2021/08/02 07:01:41;;;;;;;1.95;1.85;;;;;;;;;;5037929;28;20024;-90
2021/08/02 07:04:07;;;;;;;3.15;1.80;;;;;;;;;;5036449;28;20056;-90
2021/08/02 07:06:32;;;;;;;1.90;1.80;;;;;;;;;;5044366;28;20022;-89
2021/08/02 07:08:58;;;;;;;1.83;1.73;;;;;;;;;;5057209;28;20090;-89
2021/08/02 07:11:24;;;;;;;2.03;1.63;;;;;;;;;;5054673;28;20028;-91
2021/08/02 07:13:49;;;;;;;2.15;1.70;;;;;;;;;;5051800;28;20017;-89
2021/08/02 07:16:14;;;;;;;1.80;1.70;;;;;;;;;;5035661;28;20025;-91
2021/08/02 07:18:40;;;;;;;1.48;1.45;;;;;;;;;;5059539;28;20056;-92
2021/08/02 07:21:05;;;;;;;1.80;1.70;;;;;;;;;;5039703;28;20041;-91
2021/08/02 07:23:30;;;;;;;1.45;1.45;;;;;;;;;;5059574;28;20079;-89
2021/08/02 07:25:56;;;;;;;2.63;2.42;;;;;;;;;;5049796;28;20437;-90
2021/08/02 07:28:21;;;;;;;3.45;2.03;;;;;;;;;;5055065;28;20029;-91
2021/08/02 07:30:46;;;;;;;1.98;1.88;;;;;;;;;;5058089;28;20009;-91
2021/08/02 07:33:12;;;;;;;1.50;1.38;;;;;;;;;;5045546;28;20049;-91
2021/08/02 07:35:37;;;;;;;3.20;1.83;;;;;;;;;;5051431;28;20052;-89
2021/08/02 07:38:02;;;;;;;2.28;1.77;;;;;;;;;;5058629;28;20428;-93
2021/08/02 07:40:28;;;;;;;1.92;1.83;;;;;;;;;;5053657;28;20130;-92
2021/08/02 07:42:53;;;;;;;2.00;1.90;;;;;;;;;;5058069;28;20088;-92
2021/08/02 07:45:18;;;;;;;1.45;1.38;;;;;;;;;;5047979;28;20024;-91
2021/08/02 07:47:44;;;;;;;1.63;1.52;;;;;;;;;;5054264;28;20017;-92
2021/08/02 07:50:11;;;;;;;1.60;1.50;;;;;;;;;;5044856;28;20025;-91
2021/08/02 07:52:39;;;;;;;2.33;1.80;;;;;;;;;;5061445;28;20032;-92
2021/08/02 07:55:06;;;;;;;1.90;1.58;;;;;;;;;;5051423;28;20090;-89
2021/08/02 07:57:32;;;;;;;1.50;1.40;;;;;;;;;;5065098;28;20029;-91
2021/08/02 08:00:00;;;;;;;2.90;1.92;;;;;;;;;;5048070;28;20028;-91
2021/08/02 08:02:26;;;;;;;1.83;1.73;;;;;;;;;;5049702;28;20023;-91
2021/08/02 08:04:51;;;;;;;2.42;1.73;;;;;;;;;;5059300;28;20398;-90
2021/08/02 08:07:17;;;;;;;2.58;1.92;;;;;;;;;;5068244;28;20084;-91
2021/08/02 08:09:42;;;;;;;2.40;2.30;;;;;;;;;;5045753;28;20023;-92
2021/08/02 08:12:08;;;;;;;1.90;1.65;;;;;;;;;;5054166;28;20038;-93
2021/08/02 08:14:34;;;;;;;1.55;1.40;;;;;;;;;;5056627;28;20584;-90
2021/08/02 08:16:59;;;;;;;1.83;1.77;;;;;;;;;;5038293;28;20044;-90
2021/08/02 08:19:24;;;;;;;1.73;1.60;;;;;;;;;;5034334;28;20048;-89
2021/08/02 08:21:50;;;;;;;1.80;1.70;;;;;;;;;;5023731;28;20511;-89
2021/08/02 08:24:15;;;;;;;1.67;1.58;;;;;;;;;;5043861;28;20028;-91
2021/08/02 08:26:40;;;;;;;1.50;1.50;;;;;;;;;;5044884;28;20021;-91
2021/08/02 08:29:06;;;;;;;3.20;1.90;;;;;;;;;;5042135;28;20021;-91
2021/08/02 08:31:31;;;;;;;1.70;1.60;;;;;;;;;;5015822;28;20115;-86
2021/08/02 08:33:57;;;;;;;1.70;1.60;;;;;;;;;;5006506;28;20118;-89
2021/08/02 08:36:22;;;;;;;2.83;1.60;;;;;;;;;;5004221;28;20523;-91
2021/08/02 08:38:48;;;;;;;1.20;1.20;;;;;;;;;;5020237;28;20484;-88
2021/08/02 08:41:16;;;;;;;2.90;1.60;;;;;;;;;;5019075;28;20045;-90
2021/08/02 08:43:42;;;;;;;1.98;1.55;;;;;;;;;;5005030;28;20037;-90
2021/08/02 08:46:07;;;;;;;2.83;1.73;;;;;;;;;;5016047;28;20014;-91
2021/08/02 08:48:32;;;;;;;1.52;1.48;;;;;;;;;;5012557;28;20026;-89
2021/08/02 08:50:59;;;;;;;1.30;1.30;;;;;;;;;;5027246;28;20042;-89
2021/08/02 08:53:25;;;;;;;1.45;1.38;;;;;;;;;;5038653;28;20033;-89
2021/08/02 08:55:50;;;;;;;1.50;1.40;;;;;;;;;;5019318;28;20179;-90
2021/08/02 08:58:15;;;;;;;1.58;1.48;;;;;;;;;;5029763;28;20064;-90
2021/08/02 09:00:41;;;;;;;1.50;1.40;;;;;;;;;;5001771;28;20049;-90
2021/08/02 09:03:13;;;;;;;1.58;1.48;;;;;;;;;;5002259;28;20026;-90
2021/08/02 09:05:39;;;;;;;3.67;2.65;;;;;;;;;;5009450;28;20548;-91
2021/08/02 09:08:05;;;;;;;1.50;1.40;;;;;;;;;;5004245;28;20050;-89
2021/08/02 09:10:30;;;;;;;1.70;1.60;;;;;;;;;;5018810;28;20056;-90
2021/08/02 09:12:56;;;;;;;1.30;1.30;;;;;;;;;;5003312;28;20065;-91
2021/08/02 09:15:31;;;;;;;1.50;1.40;;;;;;;;;;5001836;28;20447;-90
2021/08/02 09:17:57;;;;;;;3.25;2.78;;;;;;;;;;5017030;28;20022;-89
2021/08/02 09:20:23;;;;;;;1.70;1.60;;;;;;;;;;5024925;28;20030;-90
2021/08/02 09:22:49;;;;;;;1.95;1.80;;;;;;;;;;5015162;28;20080;-89
2021/08/02 09:25:15;;;;;;;2.95;1.95;;;;;;;;;;5009028;28;20022;-91
2021/08/02 09:27:41;;;;;;;1.52;1.45;;;;;;;;;;5005527;28;20019;-90
2021/08/02 09:30:26;;;;;;;1.67;1.60;;;;;;;;;;5004897;28;20033;-90
2021/08/02 09:32:56;;;;;;;1.58;1.55;;;;;;;;;;5023609;28;20057;-89
2021/08/02 09:35:29;;;;;;;1.70;1.60;;;;;;;;;;5026449;28;20034;-88
2021/08/02 09:37:55;;;;;;;2.88;1.60;;;;;;;;;;5008660;28;20030;-90
2021/08/02 09:40:20;;;;;;;1.70;1.60;;;;;;;;;;5009612;28;20469;-91
2021/08/02 09:42:56;;;;;;;1.70;1.60;;;;;;;;;;5011108;28;20160;-91
2021/08/02 09:45:21;;;;;;;1.48;1.48;;;;;;;;;;5010858;28;20137;-89
2021/08/02 09:47:50;;;;;;;1.73;1.63;;;;;;;;;;5010117;28;20113;-92
2021/08/02 09:50:28;;;;;;;1.70;1.60;;;;;;;;;;5014554;28;20053;-89
2021/08/02 09:52:54;;;;;;;2.75;1.98;;;;;;;;;;5014591;28;20452;-90
2021/08/02 09:55:20;;;;;;;4.43;2.47;;;;;;;;;;5019679;28;20030;-90
2021/08/02 09:57:45;;;;;;;3.53;1.70;;;;;;;;;;5029820;28;20022;-90
2021/08/02 10:00:11;;;;;;;2.03;1.92;;;;;;;;;;5004233;28;20075;-91
2021/08/02 10:02:36;;;;;;;1.83;1.70;;;;;;;;;;5013335;28;20030;-89
2021/08/02 10:05:02;;;;;;;2.15;1.73;;;;;;;;;;5013167;28;20391;-90
2021/08/02 10:07:27;;;;;;;2.17;1.77;;;;;;;;;;5015241;28;20049;-90
2021/08/02 10:09:52;;;;;;;3.28;2.05;;;;;;;;;;5013586;28;20061;-91
2021/08/02 10:12:18;;;;;;;2.03;1.92;;;;;;;;;;5012560;28;20038;-91
2021/08/02 10:14:44;;;;;;;1.90;1.80;;;;;;;;;;5013220;28;20026;-90
2021/08/02 10:17:10;;;;;;;2.28;1.90;;;;;;;;;;5028215;28;20108;-91
2021/08/02 10:19:35;;;;;;;1.83;1.73;;;;;;;;;;5011960;28;20018;-91
2021/08/02 10:22:01;;;;;;;2.10;2.00;;;;;;;;;;5013492;28;20038;-90
2021/08/02 10:24:26;;;;;;;2.00;1.90;;;;;;;;;;5015350;28;20018;-90
2021/08/02 10:26:59;;;;;;;2.17;2.08;;;;;;;;;;5015017;28;20026;-90
2021/08/02 10:29:36;;;;;;;1.80;1.70;;;;;;;;;;5006614;28;20057;-90
2021/08/02 10:32:01;;;;;;;2.10;2.00;;;;;;;;;;5034187;28;20053;-90
2021/08/02 10:34:27;;;;;;;2.00;1.60;;;;;;;;;;5045941;28;20047;-89
2021/08/02 10:37:05;;;;;;;2.38;1.80;;;;;;;;;;5033205;28;20101;-90
2021/08/02 10:39:33;;;;;;;1.98;1.88;;;;;;;;;;5047215;28;20025;-91
2021/08/02 10:42:05;;;;;;;3.47;2.22;;;;;;;;;;5028156;28;20513;-88
2021/08/02 10:44:31;;;;;;;1.92;1.83;;;;;;;;;;5043591;28;20074;-90
2021/08/02 10:47:00;;;;;;;1.98;1.77;;;;;;;;;;5028099;28;20033;-90
2021/08/02 10:49:25;;;;;;;1.98;1.88;;;;;;;;;;5045047;28;20033;-92
2021/08/02 10:51:54;;;;;;;1.85;1.75;;;;;;;;;;5047588;28;20505;-89
2021/08/02 10:54:19;;;;;;;3.33;2.10;;;;;;;;;;5030977;28;20040;-89
2021/08/02 10:56:48;;;;;;;2.85;1.77;;;;;;;;;;5031578;28;20458;-88
2021/08/02 10:59:14;;;;;;;1.90;1.80;;;;;;;;;;5044631;28;20029;-90
2021/08/02 11:01:45;;;;;;;1.90;1.80;;;;;;;;;;5037468;28;20060;-91
2021/08/02 11:04:11;;;;;;;2.00;1.80;;;;;;;;;;5031180;28;20043;-89
2021/08/02 11:06:36;;;;;;;1.98;1.88;;;;;;;;;;5032517;28;20470;-91
2021/08/02 11:09:03;;;;;;;2.00;1.90;;;;;;;;;;5032174;28;20017;-89
2021/08/02 11:11:34;;;;;;;2.28;1.65;;;;;;;;;;5045986;28;20370;-87
2021/08/02 11:14:20;;;;;;;1.83;1.73;;;;;;;;;;5026627;28;20065;-89
2021/08/02 11:16:50;;;;;;;2.67;2.05;;;;;;;;;;5037031;28;20061;-88
2021/08/02 11:19:18;;;;;;;1.83;1.73;;;;;;;;;;5047331;28;20422;-88
2021/08/02 11:21:45;;;;;;;3.75;1.88;;;;;;;;;;5028503;28;20123;-88
2021/08/02 11:24:11;;;;;;;1.63;1.52;;;;;;;;;;5044208;28;20382;-89
2021/08/02 11:26:46;;;;;;;2.00;1.90;;;;;;;;;;5046948;28;20104;-89
2021/08/02 11:29:19;;;;;;;2.33;2.10;;;;;;;;;;5040493;28;20366;-89
2021/08/02 11:31:52;;;;;;;2.17;1.90;;;;;;;;;;5044336;28;20521;-89
2021/08/02 11:34:21;;;;;;;2.95;2.30;;;;;;;;;;5028721;28;20029;-91
2021/08/02 11:36:55;;;;;;;2.42;2.10;;;;;;;;;;5030712;28;20032;-90
2021/08/02 11:39:20;;;;;;;1.85;1.73;;;;;;;;;;5050045;28;20067;-89
2021/08/02 11:41:46;;;;;;;1.65;1.55;;;;;;;;;;5036295;28;20053;-90
2021/08/02 11:44:11;;;;;;;2.17;2.08;;;;;;;;;;5033942;28;20024;-91
2021/08/02 11:46:37;;;;;;;2.42;1.98;;;;;;;;;;5043980;28;20052;-91
2021/08/02 11:49:02;;;;;;;2.85;1.92;;;;;;;;;;5050195;28;20063;-88
2021/08/02 11:51:27;;;;;;;2.33;2.13;;;;;;;;;;5041454;28;20469;-89
2021/08/02 11:53:53;;;;;;;2.08;1.98;;;;;;;;;;5036672;28;20060;-90
2021/08/02 11:56:18;;;;;;;2.35;2.20;;;;;;;;;;5053565;28;20029;-90
2021/08/02 11:58:47;;;;;;;3.75;1.98;;;;;;;;;;5054325;28;20084;-89
2021/08/02 12:01:13;;;;;;;2.08;1.98;;;;;;;;;;5063456;28;20021;-88
2021/08/02 12:03:56;;;;;;;2.53;2.30;;;;;;;;;;5066466;28;20016;-90
2021/08/02 12:06:21;;;;;;;2.00;1.90;;;;;;;;;;5048702;28;20041;-89
2021/08/02 12:08:48;;;;;;;1.80;1.70;;;;;;;;;;5060842;28;20032;-91
2021/08/02 12:11:14;;;;;;;3.17;2.97;;;;;;;;;;5049988;28;20059;-88
2021/08/02 12:13:39;;;;;;;2.20;2.10;;;;;;;;;;5033861;28;20036;-88
2021/08/02 12:16:05;;;;;;;2.58;2.38;;;;;;;;;;5031555;28;20478;-89
2021/08/02 12:18:30;;;;;;;2.38;2.17;;;;;;;;;;5046795;28;20116;-88
2021/08/02 12:20:57;;;;;;;2.58;2.38;;;;;;;;;;5035390;28;20025;-90
2021/08/02 12:23:23;;;;;;;2.42;2.33;;;;;;;;;;5035278;28;20502;-89
2021/08/02 12:25:48;;;;;;;2.58;2.38;;;;;;;;;;5038316;28;20026;-90
2021/08/02 12:28:14;;;;;;;2.50;2.30;;;;;;;;;;5033296;28;20477;-90
2021/08/02 12:30:41;;;;;;;2.50;2.35;;;;;;;;;;5053388;28;20025;-89
2021/08/02 12:33:07;;;;;;;2.38;2.13;;;;;;;;;;5065062;28;20029;-88
2021/08/02 12:35:32;;;;;;;2.45;2.35;;;;;;;;;;5049391;28;20064;-88
2021/08/02 12:37:58;;;;;;;2.63;2.10;;;;;;;;;;5057539;28;20017;-89
2021/08/02 12:40:24;;;;;;;2.40;2.30;;;;;;;;;;5057598;28;20025;-88
2021/08/02 12:42:49;;;;;;;2.28;2.17;;;;;;;;;;5053678;28;20016;-89
2021/08/02 12:45:15;;;;;;;2.42;2.20;;;;;;;;;;5051031;28;20101;-89
2021/08/02 12:47:41;;;;;;;2.20;2.03;;;;;;;;;;5052215;28;20041;-88
2021/08/02 12:50:08;;;;;;;2.50;2.33;;;;;;;;;;5051816;28;20029;-89
2021/08/02 12:52:33;;;;;;;2.28;2.17;;;;;;;;;;5051839;28;20216;-88
2021/08/02 12:55:02;;;;;;;2.25;2.05;;;;;;;;;;5066723;28;20079;-89
2021/08/02 12:57:28;;;;;;;2.78;2.22;;;;;;;;;;5054424;28;20025;-90
2021/08/02 12:59:57;;;;;;;3.95;1.83;;;;;;;;;;5033981;28;20033;-90
2021/08/02 13:02:24;;;;;;;2.08;1.90;;;;;;;;;;5034243;28;20009;-90
2021/08/02 13:04:49;;;;;;;1.77;1.77;;;;;;;;;;5035142;28;20013;-91
2021/08/02 13:07:14;;;;;;;1.98;1.88;;;;;;;;;;5039258;28;20028;-89
2021/08/02 13:09:40;;;;;;;2.00;1.90;;;;;;;;;;5035652;28;20024;-88
2021/08/02 13:12:05;;;;;;;2.22;2.13;;;;;;;;;;5053381;28;20039;-90
2021/08/02 13:14:30;;;;;;;2.40;2.30;;;;;;;;;;5033619;28;20025;-90
2021/08/02 13:16:56;;;;;;;1.65;1.60;;;;;;;;;;5047976;28;20437;-90
2021/08/02 13:19:21;;;;;;;2.13;1.65;;;;;;;;;;5037518;28;20028;-90
2021/08/02 13:21:46;;;;;;;1.95;1.70;;;;;;;;;;5050501;28;20071;-88
2021/08/02 13:27:00;;;;;;;2.38;1.40;;;;;;;;;;5046559;28;20037;-89
2021/08/02 13:29:26;;;;;;;1.80;1.60;;;;;;;;;;5047848;28;20474;-90
2021/08/02 13:31:53;;;;;;;1.60;1.50;;;;;;;;;;5033953;28;20053;-90
2021/08/02 13:34:19;;;;;;;2.10;2.00;;;;;;;;;;5005931;28;20076;-89
2021/08/02 13:36:45;;;;;;;3.10;2.08;;;;;;;;;;5024409;28;20487;-88
2021/08/02 13:39:11;;;;;;;1.83;1.73;;;;;;;;;;5023792;28;20029;-91
2021/08/02 13:41:36;;;;;;;1.70;1.60;;;;;;;;;;5021782;28;20521;-90
2021/08/02 13:44:02;;;;;;;1.80;1.70;;;;;;;;;;5022039;28;20380;-90
2021/08/02 13:46:28;;;;;;;2.28;2.10;;;;;;;;;;5004514;28;20036;-89
2021/08/02 13:48:54;;;;;;;2.10;2.00;;;;;;;;;;5005443;28;20635;-91
2021/08/02 13:51:19;;;;;;;3.03;2.15;;;;;;;;;;5012856;28;20041;-92
2021/08/02 13:53:45;;;;;;;2.60;1.70;;;;;;;;;;5023494;28;20034;-91
2021/08/02 13:56:10;;;;;;;2.00;1.90;;;;;;;;;;5024083;28;20378;-91
2021/08/02 13:58:37;;;;;;;2.63;1.98;;;;;;;;;;5027961;28;20088;-90
2021/08/02 14:01:02;;;;;;;2.30;1.90;;;;;;;;;;5021404;28;20014;-90
2021/08/02 14:03:27;;;;;;;2.58;2.05;;;;;;;;;;5015121;28;20120;-89
2021/08/02 14:05:52;;;;;;;1.92;1.80;;;;;;;;;;5004090;28;20117;-90
2021/08/02 14:08:18;;;;;;;2.33;2.15;;;;;;;;;;5036827;28;20029;-91
2021/08/02 14:10:44;;;;;;;2.10;2.00;;;;;;;;;;5045362;28;20109;-89
2021/08/02 14:13:12;;;;;;;2.33;2.22;;;;;;;;;;5037438;28;20033;-89
2021/08/02 14:15:43;;;;;;;2.50;2.40;;;;;;;;;;5031094;28;20041;-89
2021/08/02 14:18:09;;;;;;;2.70;2.50;;;;;;;;;;5043133;28;20036;-88
2021/08/02 14:20:35;;;;;;;2.67;2.47;;;;;;;;;;5027024;28;20025;-87
2021/08/02 14:23:01;;;;;;;2.15;2.05;;;;;;;;;;5037101;28;20034;-89
2021/08/02 14:25:27;;;;;;;2.50;2.30;;;;;;;;;;5034589;28;20022;-88
2021/08/02 14:27:52;;;;;;;2.10;1.70;;;;;;;;;;5027895;28;20021;-89
2021/08/02 14:30:18;;;;;;;2.05;1.95;;;;;;;;;;5033592;28;20016;-88
2021/08/02 14:32:44;;;;;;;3.40;3.17;;;;;;;;;;5041086;28;20052;-89
2021/08/02 14:35:10;;;;;;;2.05;1.95;;;;;;;;;;5040379;28;20100;-89
2021/08/02 14:37:39;;;;;;;1.98;1.88;;;;;;;;;;5043451;28;20030;-91
2021/08/02 14:40:04;;;;;;;1.92;1.83;;;;;;;;;;5045511;28;20021;-90
2021/08/02 14:42:31;;;;;;;2.13;1.83;;;;;;;;;;5043693;28;20049;-88